sensor_id;sensor_type;location;lat;lon;timestamp;P1;durP1;ratioP1;P2;durP2;ratioP2
23310;SDS011;11828;51.508;18.118;2023-07-13T00:01:47;260.88;;;93.35;;
23310;SDS011;11828;51.508;18.118;2023-07-13T00:04:19;246.32;;;95.57;;
23310;SDS011;11828;51.508;18.118;2023-07-13T00:06:48;256.83;;;107.80;;
23310;SDS011;11828;51.508;18.118;2023-07-13T00:09:16;247.90;;;92.30;;
23310;SDS011;11828;51.508;18.118;2023-07-13T00:11:43;261.60;;;101.45;;
23310;SDS011;11828;51.508;18.118;2023-07-13T00:14:13;251.68;;;93.68;;
23310;SDS011;11828;51.508;18.118;2023-07-13T00:16:41;248.75;;;97.40;;
23310;SDS011;11828;51.508;18.118;2023-07-13T00:19:11;255.70;;;104.15;;
23310;SDS011;11828;51.508;18.118;2023-07-13T00:21:38;272.95;;;104.57;;
23310;SDS011;11828;51.508;18.118;2023-07-13T00:24:06;253.35;;;104.28;;
23310;SDS011;11828;51.508;18.118;2023-07-13T00:26:38;259.52;;;109.70;;
23310;SDS011;11828;51.508;18.118;2023-07-13T00:29:05;254.27;;;94.30;;
23310;SDS011;11828;51.508;18.118;2023-07-13T00:31:38;278.50;;;96.20;;
23310;SDS011;11828;51.508;18.118;2023-07-13T00:34:05;253.80;;;92.18;;
23310;SDS011;11828;51.508;18.118;2023-07-13T00:36:32;253.13;;;100.63;;
23310;SDS011;11828;51.508;18.118;2023-07-13T00:38:58;248.13;;;100.78;;
23310;SDS011;11828;51.508;18.118;2023-07-13T00:41:25;262.65;;;100.57;;
23310;SDS011;11828;51.508;18.118;2023-07-13T00:43:51;262.83;;;83.70;;
23310;SDS011;11828;51.508;18.118;2023-07-13T00:46:22;271.33;;;105.68;;
23310;SDS011;11828;51.508;18.118;2023-07-13T00:48:55;275.63;;;112.45;;
23310;SDS011;11828;51.508;18.118;2023-07-13T00:51:40;263.75;;;97.90;;
23310;SDS011;11828;51.508;18.118;2023-07-13T00:54:14;238.63;;;88.22;;
23310;SDS011;11828;51.508;18.118;2023-07-13T00:56:48;253.13;;;111.32;;
23310;SDS011;11828;51.508;18.118;2023-07-13T00:59:18;256.38;;;115.13;;
23310;SDS011;11828;51.508;18.118;2023-07-13T01:01:49;240.10;;;99.50;;
23310;SDS011;11828;51.508;18.118;2023-07-13T01:04:16;245.38;;;97.53;;
23310;SDS011;11828;51.508;18.118;2023-07-13T01:06:43;248.73;;;103.53;;
23310;SDS011;11828;51.508;18.118;2023-07-13T01:09:11;255.93;;;112.47;;
23310;SDS011;11828;51.508;18.118;2023-07-13T01:11:37;244.77;;;88.38;;
23310;SDS011;11828;51.508;18.118;2023-07-13T01:14:04;251.68;;;102.68;;
23310;SDS011;11828;51.508;18.118;2023-07-13T01:16:32;250.88;;;108.00;;
23310;SDS011;11828;51.508;18.118;2023-07-13T01:19:01;258.38;;;115.15;;
23310;SDS011;11828;51.508;18.118;2023-07-13T01:21:37;260.20;;;118.00;;
23310;SDS011;11828;51.508;18.118;2023-07-13T01:24:08;247.63;;;95.80;;
23310;SDS011;11828;51.508;18.118;2023-07-13T01:26:35;271.23;;;130.80;;
23310;SDS011;11828;51.508;18.118;2023-07-13T01:29:01;260.35;;;119.13;;
23310;SDS011;11828;51.508;18.118;2023-07-13T01:31:28;258.88;;;91.38;;
23310;SDS011;11828;51.508;18.118;2023-07-13T01:33:55;234.98;;;80.55;;
23310;SDS011;11828;51.508;18.118;2023-07-13T01:36:22;242.20;;;88.63;;
23310;SDS011;11828;51.508;18.118;2023-07-13T01:38:49;238.13;;;83.95;;
23310;SDS011;11828;51.508;18.118;2023-07-13T01:41:15;249.10;;;91.68;;
23310;SDS011;11828;51.508;18.118;2023-07-13T01:43:43;260.05;;;97.10;;
23310;SDS011;11828;51.508;18.118;2023-07-13T01:46:08;249.38;;;102.47;;
23310;SDS011;11828;51.508;18.118;2023-07-13T01:48:36;245.98;;;89.63;;
23310;SDS011;11828;51.508;18.118;2023-07-13T01:51:03;247.52;;;102.40;;
23310;SDS011;11828;51.508;18.118;2023-07-13T01:53:29;255.95;;;118.72;;
23310;SDS011;11828;51.508;18.118;2023-07-13T01:55:55;259.70;;;119.47;;
23310;SDS011;11828;51.508;18.118;2023-07-13T01:58:22;252.82;;;108.53;;
23310;SDS011;11828;51.508;18.118;2023-07-13T02:00:48;256.27;;;97.47;;
23310;SDS011;11828;51.508;18.118;2023-07-13T02:03:17;249.85;;;102.32;;
23310;SDS011;11828;51.508;18.118;2023-07-13T02:05:45;235.77;;;81.95;;
23310;SDS011;11828;51.508;18.118;2023-07-13T02:08:12;235.73;;;81.20;;
23310;SDS011;11828;51.508;18.118;2023-07-13T02:10:38;236.68;;;81.13;;
23310;SDS011;11828;51.508;18.118;2023-07-13T02:13:05;252.70;;;92.45;;
23310;SDS011;11828;51.508;18.118;2023-07-13T02:15:32;254.85;;;92.45;;
23310;SDS011;11828;51.508;18.118;2023-07-13T02:17:59;248.38;;;87.32;;
23310;SDS011;11828;51.508;18.118;2023-07-13T02:20:25;249.50;;;89.38;;
23310;SDS011;11828;51.508;18.118;2023-07-13T02:22:52;254.77;;;93.95;;
23310;SDS011;11828;51.508;18.118;2023-07-13T02:25:18;251.70;;;96.13;;
23310;SDS011;11828;51.508;18.118;2023-07-13T02:27:45;249.35;;;97.18;;
23310;SDS011;11828;51.508;18.118;2023-07-13T02:30:11;257.08;;;90.13;;
23310;SDS011;11828;51.508;18.118;2023-07-13T02:32:38;262.90;;;98.50;;
23310;SDS011;11828;51.508;18.118;2023-07-13T02:35:06;250.60;;;92.25;;
23310;SDS011;11828;51.508;18.118;2023-07-13T02:37:33;253.88;;;89.68;;
23310;SDS011;11828;51.508;18.118;2023-07-13T02:39:59;246.27;;;98.45;;
23310;SDS011;11828;51.508;18.118;2023-07-13T02:42:25;252.10;;;90.45;;
23310;SDS011;11828;51.508;18.118;2023-07-13T02:44:51;247.25;;;95.43;;
23310;SDS011;11828;51.508;18.118;2023-07-13T02:47:20;255.70;;;106.45;;
23310;SDS011;11828;51.508;18.118;2023-07-13T02:49:47;264.75;;;102.53;;
23310;SDS011;11828;51.508;18.118;2023-07-13T02:52:13;255.57;;;96.25;;
23310;SDS011;11828;51.508;18.118;2023-07-13T02:54:39;251.13;;;87.22;;
23310;SDS011;11828;51.508;18.118;2023-07-13T02:57:06;257.05;;;109.93;;
23310;SDS011;11828;51.508;18.118;2023-07-13T02:59:32;253.02;;;101.82;;
23310;SDS011;11828;51.508;18.118;2023-07-13T03:02:00;242.70;;;85.72;;
23310;SDS011;11828;51.508;18.118;2023-07-13T03:04:28;242.25;;;97.40;;
23310;SDS011;11828;51.508;18.118;2023-07-13T03:06:58;251.38;;;110.07;;
23310;SDS011;11828;51.508;18.118;2023-07-13T03:09:25;235.23;;;81.18;;
23310;SDS011;11828;51.508;18.118;2023-07-13T03:11:52;247.60;;;97.35;;
23310;SDS011;11828;51.508;18.118;2023-07-13T03:14:23;241.95;;;87.65;;
23310;SDS011;11828;51.508;18.118;2023-07-13T03:16:49;240.63;;;86.53;;
23310;SDS011;11828;51.508;18.118;2023-07-13T03:19:20;232.07;;;78.13;;
23310;SDS011;11828;51.508;18.118;2023-07-13T03:21:46;239.15;;;84.03;;
23310;SDS011;11828;51.508;18.118;2023-07-13T03:24:13;261.02;;;119.70;;
23310;SDS011;11828;51.508;18.118;2023-07-13T03:26:39;250.52;;;94.90;;
23310;SDS011;11828;51.508;18.118;2023-07-13T03:29:05;238.35;;;86.18;;
23310;SDS011;11828;51.508;18.118;2023-07-13T03:31:33;241.35;;;81.30;;
23310;SDS011;11828;51.508;18.118;2023-07-13T03:34:01;238.65;;;81.18;;
23310;SDS011;11828;51.508;18.118;2023-07-13T03:36:32;234.57;;;85.78;;
23310;SDS011;11828;51.508;18.118;2023-07-13T03:39:04;255.32;;;105.13;;
23310;SDS011;11828;51.508;18.118;2023-07-13T03:41:36;270.48;;;128.75;;
23310;SDS011;11828;51.508;18.118;2023-07-13T03:44:02;247.55;;;93.07;;
23310;SDS011;11828;51.508;18.118;2023-07-13T03:46:35;243.30;;;90.10;;
23310;SDS011;11828;51.508;18.118;2023-07-13T03:49:01;266.27;;;112.85;;
23310;SDS011;11828;51.508;18.118;2023-07-13T03:51:29;262.85;;;107.70;;
23310;SDS011;11828;51.508;18.118;2023-07-13T03:53:56;259.42;;;111.47;;
23310;SDS011;11828;51.508;18.118;2023-07-13T03:56:23;275.63;;;125.72;;
23310;SDS011;11828;51.508;18.118;2023-07-13T03:58:49;249.70;;;96.50;;
23310;SDS011;11828;51.508;18.118;2023-07-13T04:01:21;271.58;;;120.20;;
23310;SDS011;11828;51.508;18.118;2023-07-13T04:03:50;270.88;;;115.93;;
23310;SDS011;11828;51.508;18.118;2023-07-13T04:06:23;286.80;;;137.93;;
23310;SDS011;11828;51.508;18.118;2023-07-13T04:08:56;261.15;;;106.22;;
23310;SDS011;11828;51.508;18.118;2023-07-13T04:11:26;261.63;;;112.50;;
23310;SDS011;11828;51.508;18.118;2023-07-13T04:13:56;257.73;;;107.85;;
23310;SDS011;11828;51.508;18.118;2023-07-13T04:16:23;261.35;;;110.80;;
23310;SDS011;11828;51.508;18.118;2023-07-13T04:18:51;258.90;;;94.85;;
23310;SDS011;11828;51.508;18.118;2023-07-13T04:21:20;256.35;;;98.97;;
23310;SDS011;11828;51.508;18.118;2023-07-13T04:23:47;267.50;;;107.25;;
23310;SDS011;11828;51.508;18.118;2023-07-13T04:26:14;261.83;;;102.85;;
23310;SDS011;11828;51.508;18.118;2023-07-13T04:28:40;278.80;;;135.30;;
23310;SDS011;11828;51.508;18.118;2023-07-13T04:31:07;287.17;;;149.13;;
23310;SDS011;11828;51.508;18.118;2023-07-13T04:33:33;284.63;;;131.57;;
23310;SDS011;11828;51.508;18.118;2023-07-13T04:35:59;263.70;;;109.53;;
23310;SDS011;11828;51.508;18.118;2023-07-13T04:38:27;256.15;;;95.25;;
23310;SDS011;11828;51.508;18.118;2023-07-13T04:40:57;260.52;;;84.80;;
23310;SDS011;11828;51.508;18.118;2023-07-13T04:43:26;253.80;;;90.80;;
23310;SDS011;11828;51.508;18.118;2023-07-13T04:45:54;276.92;;;117.75;;
23310;SDS011;11828;51.508;18.118;2023-07-13T04:48:21;311.83;;;170.05;;
23310;SDS011;11828;51.508;18.118;2023-07-13T04:50:53;259.67;;;109.10;;
23310;SDS011;11828;51.508;18.118;2023-07-13T04:53:22;294.55;;;160.38;;
23310;SDS011;11828;51.508;18.118;2023-07-13T04:55:49;294.67;;;161.35;;
23310;SDS011;11828;51.508;18.118;2023-07-13T04:58:15;308.27;;;164.10;;
23310;SDS011;11828;51.508;18.118;2023-07-13T05:00:42;345.25;;;192.32;;
23310;SDS011;11828;51.508;18.118;2023-07-13T05:03:09;416.98;;;273.23;;
23310;SDS011;11828;51.508;18.118;2023-07-13T05:05:35;304.60;;;156.77;;
23310;SDS011;11828;51.508;18.118;2023-07-13T05:08:01;301.48;;;144.00;;
23310;SDS011;11828;51.508;18.118;2023-07-13T05:10:27;265.13;;;112.38;;
23310;SDS011;11828;51.508;18.118;2023-07-13T05:12:54;293.45;;;143.25;;
23310;SDS011;11828;51.508;18.118;2023-07-13T05:15:21;222.77;;;92.90;;
23310;SDS011;11828;51.508;18.118;2023-07-13T05:17:48;276.80;;;107.78;;
23310;SDS011;11828;51.508;18.118;2023-07-13T05:20:16;270.35;;;96.18;;
23310;SDS011;11828;51.508;18.118;2023-07-13T05:22:43;267.33;;;97.65;;
23310;SDS011;11828;51.508;18.118;2023-07-13T05:25:09;264.80;;;85.97;;
23310;SDS011;11828;51.508;18.118;2023-07-13T05:27:36;270.25;;;88.30;;
23310;SDS011;11828;51.508;18.118;2023-07-13T05:30:03;265.25;;;85.55;;
23310;SDS011;11828;51.508;18.118;2023-07-13T05:32:30;279.02;;;93.15;;
23310;SDS011;11828;51.508;18.118;2023-07-13T05:34:57;282.55;;;100.53;;
23310;SDS011;11828;51.508;18.118;2023-07-13T05:37:23;257.58;;;99.63;;
23310;SDS011;11828;51.508;18.118;2023-07-13T05:39:49;291.20;;;160.48;;
23310;SDS011;11828;51.508;18.118;2023-07-13T05:42:15;264.80;;;97.75;;
23310;SDS011;11828;51.508;18.118;2023-07-13T05:44:41;247.65;;;90.45;;
23310;SDS011;11828;51.508;18.118;2023-07-13T05:47:08;267.55;;;98.60;;
23310;SDS011;11828;51.508;18.118;2023-07-13T05:49:34;254.07;;;94.55;;
23310;SDS011;11828;51.508;18.118;2023-07-13T05:52:00;268.17;;;100.22;;
23310;SDS011;11828;51.508;18.118;2023-07-13T05:54:26;264.67;;;99.00;;
23310;SDS011;11828;51.508;18.118;2023-07-13T05:56:53;271.52;;;106.18;;
23310;SDS011;11828;51.508;18.118;2023-07-13T05:59:38;261.10;;;99.57;;
23310;SDS011;11828;51.508;18.118;2023-07-13T06:02:04;246.55;;;95.28;;
23310;SDS011;11828;51.508;18.118;2023-07-13T06:04:31;269.27;;;107.95;;
23310;SDS011;11828;51.508;18.118;2023-07-13T06:07:11;269.40;;;106.75;;
23310;SDS011;11828;51.508;18.118;2023-07-13T06:09:37;253.43;;;82.97;;
23310;SDS011;11828;51.508;18.118;2023-07-13T06:12:04;248.55;;;85.07;;
23310;SDS011;11828;51.508;18.118;2023-07-13T06:14:30;258.45;;;84.47;;
23310;SDS011;11828;51.508;18.118;2023-07-13T06:16:57;255.15;;;85.82;;
23310;SDS011;11828;51.508;18.118;2023-07-13T06:19:23;262.13;;;91.20;;
23310;SDS011;11828;51.508;18.118;2023-07-13T06:21:49;254.27;;;94.57;;
23310;SDS011;11828;51.508;18.118;2023-07-13T06:24:15;253.20;;;83.82;;
23310;SDS011;11828;51.508;18.118;2023-07-13T06:26:42;242.23;;;87.85;;
23310;SDS011;11828;51.508;18.118;2023-07-13T06:29:08;251.88;;;86.30;;
23310;SDS011;11828;51.508;18.118;2023-07-13T06:31:48;260.27;;;102.90;;
23310;SDS011;11828;51.508;18.118;2023-07-13T06:34:20;253.00;;;84.20;;
23310;SDS011;11828;51.508;18.118;2023-07-13T06:36:47;258.13;;;98.05;;
23310;SDS011;11828;51.508;18.118;2023-07-13T06:39:14;256.20;;;95.70;;
23310;SDS011;11828;51.508;18.118;2023-07-13T06:41:40;252.82;;;93.30;;
23310;SDS011;11828;51.508;18.118;2023-07-13T06:44:06;255.57;;;103.57;;
23310;SDS011;11828;51.508;18.118;2023-07-13T06:46:33;244.38;;;90.63;;
23310;SDS011;11828;51.508;18.118;2023-07-13T06:48:59;260.70;;;93.68;;
23310;SDS011;11828;51.508;18.118;2023-07-13T06:51:25;249.65;;;97.03;;
23310;SDS011;11828;51.508;18.118;2023-07-13T06:53:51;258.60;;;102.75;;
23310;SDS011;11828;51.508;18.118;2023-07-13T06:56:18;256.23;;;93.97;;
23310;SDS011;11828;51.508;18.118;2023-07-13T06:58:44;241.20;;;91.63;;
23310;SDS011;11828;51.508;18.118;2023-07-13T07:01:11;287.77;;;130.02;;
23310;SDS011;11828;51.508;18.118;2023-07-13T07:03:37;349.73;;;185.13;;
23310;SDS011;11828;51.508;18.118;2023-07-13T07:06:12;246.02;;;99.38;;
23310;SDS011;11828;51.508;18.118;2023-07-13T07:08:43;251.18;;;116.00;;
23310;SDS011;11828;51.508;18.118;2023-07-13T07:11:14;267.38;;;121.00;;
23310;SDS011;11828;51.508;18.118;2023-07-13T07:13:51;257.13;;;98.65;;
23310;SDS011;11828;51.508;18.118;2023-07-13T07:16:19;265.27;;;107.32;;
23310;SDS011;11828;51.508;18.118;2023-07-13T07:18:46;275.10;;;123.15;;
23310;SDS011;11828;51.508;18.118;2023-07-13T07:21:13;237.55;;;111.55;;
23310;SDS011;11828;51.508;18.118;2023-07-13T07:23:39;279.88;;;129.68;;
23310;SDS011;11828;51.508;18.118;2023-07-13T07:26:06;251.88;;;104.97;;
23310;SDS011;11828;51.508;18.118;2023-07-13T07:28:34;286.10;;;128.63;;
23310;SDS011;11828;51.508;18.118;2023-07-13T07:31:01;217.50;;;104.35;;
23310;SDS011;11828;51.508;18.118;2023-07-13T07:33:27;216.65;;;88.75;;
23310;SDS011;11828;51.508;18.118;2023-07-13T07:35:53;254.55;;;93.38;;
23310;SDS011;11828;51.508;18.118;2023-07-13T07:38:19;253.98;;;92.30;;
23310;SDS011;11828;51.508;18.118;2023-07-13T07:40:46;182.82;;;83.93;;
23310;SDS011;11828;51.508;18.118;2023-07-13T07:43:12;261.23;;;89.60;;
23310;SDS011;11828;51.508;18.118;2023-07-13T07:45:39;264.05;;;102.82;;
23310;SDS011;11828;51.508;18.118;2023-07-13T07:48:06;227.98;;;100.43;;
23310;SDS011;11828;51.508;18.118;2023-07-13T07:50:32;162.15;;;104.03;;
23310;SDS011;11828;51.508;18.118;2023-07-13T07:52:58;15.43;;;4.45;;
23310;SDS011;11828;51.508;18.118;2023-07-13T07:55:27;9.20;;;3.05;;
23310;SDS011;11828;51.508;18.118;2023-07-13T08:00:39;17.23;;;4.22;;
23310;SDS011;11828;51.508;18.118;2023-07-13T08:03:06;14.00;;;3.72;;
23310;SDS011;11828;51.508;18.118;2023-07-13T08:05:34;14.05;;;3.50;;
23310;SDS011;11828;51.508;18.118;2023-07-13T08:08:02;11.07;;;3.28;;
23310;SDS011;11828;51.508;18.118;2023-07-13T08:10:29;11.15;;;2.95;;
23310;SDS011;11828;51.508;18.118;2023-07-13T08:12:55;9.65;;;3.05;;
23310;SDS011;11828;51.508;18.118;2023-07-13T08:15:21;13.00;;;3.17;;
23310;SDS011;11828;51.508;18.118;2023-07-13T08:17:48;9.27;;;2.72;;
23310;SDS011;11828;51.508;18.118;2023-07-13T08:20:15;8.70;;;2.95;;
23310;SDS011;11828;51.508;18.118;2023-07-13T08:22:41;11.18;;;2.95;;
23310;SDS011;11828;51.508;18.118;2023-07-13T08:25:07;11.27;;;3.00;;
23310;SDS011;11828;51.508;18.118;2023-07-13T08:27:33;8.32;;;2.63;;
23310;SDS011;11828;51.508;18.118;2023-07-13T08:30:00;12.45;;;3.30;;
23310;SDS011;11828;51.508;18.118;2023-07-13T08:32:26;71.90;;;31.88;;
23310;SDS011;11828;51.508;18.118;2023-07-13T08:34:53;179.05;;;65.40;;
23310;SDS011;11828;51.508;18.118;2023-07-13T08:37:19;112.60;;;44.40;;
23310;SDS011;11828;51.508;18.118;2023-07-13T08:39:45;246.40;;;101.47;;
23310;SDS011;11828;51.508;18.118;2023-07-13T08:47:52;46.60;;;20.20;;
23310;SDS011;11828;51.508;18.118;2023-07-13T08:50:29;61.03;;;28.38;;
23310;SDS011;11828;51.508;18.118;2023-07-13T08:53:02;35.22;;;16.88;;
23310;SDS011;11828;51.508;18.118;2023-07-13T08:55:31;22.00;;;10.88;;
23310;SDS011;11828;51.508;18.118;2023-07-13T08:58:06;20.00;;;7.55;;
23310;SDS011;11828;51.508;18.118;2023-07-13T09:00:43;16.02;;;8.85;;
23310;SDS011;11828;51.508;18.118;2023-07-13T09:03:33;9.98;;;3.67;;
23310;SDS011;11828;51.508;18.118;2023-07-13T09:06:07;9.48;;;3.15;;
23310;SDS011;11828;51.508;18.118;2023-07-13T09:08:41;7.53;;;2.50;;
23310;SDS011;11828;51.508;18.118;2023-07-13T09:11:26;12.90;;;2.90;;
23310;SDS011;11828;51.508;18.118;2023-07-13T09:14:18;9.68;;;2.92;;
23310;SDS011;11828;51.508;18.118;2023-07-13T09:17:18;8.35;;;2.90;;
23310;SDS011;11828;51.508;18.118;2023-07-13T09:20:01;12.32;;;3.15;;
23310;SDS011;11828;51.508;18.118;2023-07-13T09:22:37;10.55;;;2.83;;
23310;SDS011;11828;51.508;18.118;2023-07-13T09:27:48;6.85;;;2.50;;
23310;SDS011;11828;51.508;18.118;2023-07-13T09:30:22;15.60;;;3.17;;
23310;SDS011;11828;51.508;18.118;2023-07-13T09:32:56;9.63;;;2.70;;
23310;SDS011;11828;51.508;18.118;2023-07-13T09:35:42;9.68;;;2.85;;
23310;SDS011;11828;51.508;18.118;2023-07-13T09:38:15;7.30;;;2.45;;
23310;SDS011;11828;51.508;18.118;2023-07-13T09:41:03;9.90;;;2.70;;
23310;SDS011;11828;51.508;18.118;2023-07-13T09:46:54;11.07;;;3.05;;
23310;SDS011;11828;51.508;18.118;2023-07-13T09:49:28;11.77;;;3.03;;
23310;SDS011;11828;51.508;18.118;2023-07-13T09:52:03;15.18;;;3.15;;
23310;SDS011;11828;51.508;18.118;2023-07-13T09:54:33;8.55;;;2.40;;
23310;SDS011;11828;51.508;18.118;2023-07-13T09:57:01;9.73;;;2.78;;
23310;SDS011;11828;51.508;18.118;2023-07-13T09:59:40;9.75;;;2.58;;
23310;SDS011;11828;51.508;18.118;2023-07-13T10:02:31;7.40;;;2.55;;
23310;SDS011;11828;51.508;18.118;2023-07-13T10:05:01;8.07;;;2.50;;
23310;SDS011;11828;51.508;18.118;2023-07-13T10:07:31;7.70;;;2.55;;
23310;SDS011;11828;51.508;18.118;2023-07-13T10:10:12;9.43;;;3.20;;
23310;SDS011;11828;51.508;18.118;2023-07-13T10:12:48;10.13;;;3.10;;
23310;SDS011;11828;51.508;18.118;2023-07-13T10:15:18;9.80;;;4.03;;
23310;SDS011;11828;51.508;18.118;2023-07-13T10:17:47;10.82;;;3.95;;
23310;SDS011;11828;51.508;18.118;2023-07-13T10:20:15;10.23;;;3.17;;
23310;SDS011;11828;51.508;18.118;2023-07-13T10:25:32;7.60;;;3.00;;
23310;SDS011;11828;51.508;18.118;2023-07-13T10:28:03;7.80;;;4.10;;
23310;SDS011;11828;51.508;18.118;2023-07-13T10:30:45;13.00;;;3.80;;
23310;SDS011;11828;51.508;18.118;2023-07-13T10:33:13;12.55;;;4.10;;
23310;SDS011;11828;51.508;18.118;2023-07-13T10:35:40;11.48;;;4.32;;
23310;SDS011;11828;51.508;18.118;2023-07-13T10:38:13;16.23;;;4.80;;
23310;SDS011;11828;51.508;18.118;2023-07-13T10:40:55;10.88;;;4.07;;
23310;SDS011;11828;51.508;18.118;2023-07-13T10:43:39;13.35;;;3.90;;
23310;SDS011;11828;51.508;18.118;2023-07-13T10:46:11;11.77;;;3.38;;
23310;SDS011;11828;51.508;18.118;2023-07-13T10:48:42;10.13;;;2.63;;
23310;SDS011;11828;51.508;18.118;2023-07-13T10:51:13;6.25;;;2.25;;
23310;SDS011;11828;51.508;18.118;2023-07-13T10:53:42;5.63;;;2.20;;
23310;SDS011;11828;51.508;18.118;2023-07-13T10:56:22;7.53;;;2.30;;
23310;SDS011;11828;51.508;18.118;2023-07-13T10:59:15;7.40;;;2.45;;
23310;SDS011;11828;51.508;18.118;2023-07-13T11:04:19;7.60;;;2.20;;
23310;SDS011;11828;51.508;18.118;2023-07-13T11:06:47;8.75;;;2.33;;
23310;SDS011;11828;51.508;18.118;2023-07-13T11:09:35;8.88;;;2.33;;
23310;SDS011;11828;51.508;18.118;2023-07-13T11:12:09;10.90;;;2.40;;
23310;SDS011;11828;51.508;18.118;2023-07-13T11:20:19;8.20;;;2.20;;
23310;SDS011;11828;51.508;18.118;2023-07-13T11:30:37;8.43;;;2.78;;
23310;SDS011;11828;51.508;18.118;2023-07-13T11:33:17;8.30;;;2.90;;
23310;SDS011;11828;51.508;18.118;2023-07-13T11:36:04;8.95;;;2.97;;
23310;SDS011;11828;51.508;18.118;2023-07-13T11:38:43;9.63;;;2.80;;
23310;SDS011;11828;51.508;18.118;2023-07-13T11:41:18;9.48;;;2.60;;
23310;SDS011;11828;51.508;18.118;2023-07-13T11:43:52;20.67;;;4.03;;
23310;SDS011;11828;51.508;18.118;2023-07-13T11:46:24;8.40;;;2.78;;
23310;SDS011;11828;51.508;18.118;2023-07-13T11:48:53;14.13;;;3.22;;
23310;SDS011;11828;51.508;18.118;2023-07-13T11:51:24;14.27;;;3.38;;
23310;SDS011;11828;51.508;18.118;2023-07-13T11:53:56;7.35;;;2.70;;
23310;SDS011;11828;51.508;18.118;2023-07-13T11:56:27;10.73;;;3.10;;
23310;SDS011;11828;51.508;18.118;2023-07-13T11:58:54;6.43;;;2.70;;
23310;SDS011;11828;51.508;18.118;2023-07-13T12:01:24;5.95;;;2.40;;
23310;SDS011;11828;51.508;18.118;2023-07-13T12:04:01;9.52;;;2.50;;
23310;SDS011;11828;51.508;18.118;2023-07-13T12:06:30;9.93;;;2.58;;
23310;SDS011;11828;51.508;18.118;2023-07-13T12:09:00;5.50;;;2.15;;
23310;SDS011;11828;51.508;18.118;2023-07-13T12:11:28;6.70;;;2.10;;
23310;SDS011;11828;51.508;18.118;2023-07-13T12:13:56;12.40;;;2.85;;
23310;SDS011;11828;51.508;18.118;2023-07-13T12:16:25;7.90;;;2.45;;
23310;SDS011;11828;51.508;18.118;2023-07-13T12:19:00;12.98;;;3.17;;
23310;SDS011;11828;51.508;18.118;2023-07-13T12:21:34;5.43;;;2.10;;
23310;SDS011;11828;51.508;18.118;2023-07-13T12:24:04;5.45;;;2.33;;
23310;SDS011;11828;51.508;18.118;2023-07-13T12:26:31;8.02;;;2.42;;
23310;SDS011;11828;51.508;18.118;2023-07-13T12:28:59;9.45;;;2.50;;
23310;SDS011;11828;51.508;18.118;2023-07-13T12:34:23;5.95;;;2.10;;
23310;SDS011;11828;51.508;18.118;2023-07-13T12:36:54;4.95;;;1.98;;
23310;SDS011;11828;51.508;18.118;2023-07-13T12:39:35;8.45;;;2.30;;
23310;SDS011;11828;51.508;18.118;2023-07-13T12:42:18;5.80;;;2.10;;
23310;SDS011;11828;51.508;18.118;2023-07-13T12:44:49;5.43;;;2.20;;
23310;SDS011;11828;51.508;18.118;2023-07-13T12:47:20;6.28;;;2.17;;
23310;SDS011;11828;51.508;18.118;2023-07-13T12:49:53;6.15;;;2.10;;
23310;SDS011;11828;51.508;18.118;2023-07-13T12:52:23;10.95;;;2.40;;
23310;SDS011;11828;51.508;18.118;2023-07-13T12:58:03;7.22;;;2.30;;
23310;SDS011;11828;51.508;18.118;2023-07-13T13:00:32;14.38;;;2.92;;
23310;SDS011;11828;51.508;18.118;2023-07-13T13:05:59;12.88;;;2.80;;
23310;SDS011;11828;51.508;18.118;2023-07-13T13:08:32;12.38;;;3.03;;
23310;SDS011;11828;51.508;18.118;2023-07-13T13:11:01;10.05;;;2.75;;
23310;SDS011;11828;51.508;18.118;2023-07-13T13:13:28;9.45;;;2.50;;
23310;SDS011;11828;51.508;18.118;2023-07-13T13:15:55;10.30;;;2.80;;
23310;SDS011;11828;51.508;18.118;2023-07-13T13:18:23;20.85;;;3.90;;
23310;SDS011;11828;51.508;18.118;2023-07-13T13:20:50;7.05;;;2.35;;
23310;SDS011;11828;51.508;18.118;2023-07-13T13:23:18;7.72;;;2.40;;
23310;SDS011;11828;51.508;18.118;2023-07-13T13:25:49;7.63;;;2.60;;
23310;SDS011;11828;51.508;18.118;2023-07-13T13:31:14;8.35;;;2.92;;
23310;SDS011;11828;51.508;18.118;2023-07-13T13:33:41;13.95;;;3.40;;
23310;SDS011;11828;51.508;18.118;2023-07-13T13:36:17;6.85;;;2.60;;
23310;SDS011;11828;51.508;18.118;2023-07-13T13:38:47;9.68;;;3.20;;
23310;SDS011;11828;51.508;18.118;2023-07-13T13:41:15;10.57;;;3.30;;
23310;SDS011;11828;51.508;18.118;2023-07-13T13:43:42;7.63;;;3.15;;
23310;SDS011;11828;51.508;18.118;2023-07-13T13:46:17;8.55;;;3.17;;
23310;SDS011;11828;51.508;18.118;2023-07-13T13:49:13;8.68;;;3.05;;
23310;SDS011;11828;51.508;18.118;2023-07-13T13:51:43;8.95;;;3.40;;
23310;SDS011;11828;51.508;18.118;2023-07-13T13:54:13;7.90;;;3.00;;
23310;SDS011;11828;51.508;18.118;2023-07-13T13:56:42;9.38;;;3.20;;
23310;SDS011;11828;51.508;18.118;2023-07-13T13:59:10;13.10;;;4.00;;
23310;SDS011;11828;51.508;18.118;2023-07-13T14:01:37;7.10;;;3.80;;
23310;SDS011;11828;51.508;18.118;2023-07-13T14:04:04;8.27;;;3.45;;
23310;SDS011;11828;51.508;18.118;2023-07-13T14:06:31;8.55;;;3.20;;
23310;SDS011;11828;51.508;18.118;2023-07-13T14:08:59;7.07;;;3.00;;
23310;SDS011;11828;51.508;18.118;2023-07-13T14:11:26;8.07;;;2.80;;
23310;SDS011;11828;51.508;18.118;2023-07-13T14:13:54;9.75;;;3.60;;
23310;SDS011;11828;51.508;18.118;2023-07-13T14:16:25;6.53;;;2.88;;
23310;SDS011;11828;51.508;18.118;2023-07-13T14:18:58;11.35;;;3.38;;
23310;SDS011;11828;51.508;18.118;2023-07-13T14:21:26;7.60;;;2.70;;
23310;SDS011;11828;51.508;18.118;2023-07-13T14:24:13;6.75;;;2.70;;
23310;SDS011;11828;51.508;18.118;2023-07-13T14:26:39;6.90;;;2.75;;
23310;SDS011;11828;51.508;18.118;2023-07-13T14:29:13;7.25;;;2.83;;
23310;SDS011;11828;51.508;18.118;2023-07-13T14:31:43;10.48;;;3.30;;
23310;SDS011;11828;51.508;18.118;2023-07-13T14:34:10;9.05;;;3.13;;
23310;SDS011;11828;51.508;18.118;2023-07-13T14:36:41;8.02;;;3.10;;
23310;SDS011;11828;51.508;18.118;2023-07-13T14:39:15;6.40;;;2.40;;
23310;SDS011;11828;51.508;18.118;2023-07-13T14:41:55;11.00;;;3.28;;
23310;SDS011;11828;51.508;18.118;2023-07-13T14:44:24;8.70;;;3.05;;
23310;SDS011;11828;51.508;18.118;2023-07-13T14:46:55;7.22;;;3.00;;
23310;SDS011;11828;51.508;18.118;2023-07-13T14:49:24;9.23;;;3.17;;
23310;SDS011;11828;51.508;18.118;2023-07-13T14:51:56;8.75;;;3.03;;
23310;SDS011;11828;51.508;18.118;2023-07-13T14:54:30;4.55;;;2.58;;
23310;SDS011;11828;51.508;18.118;2023-07-13T14:56:57;7.03;;;2.53;;
23310;SDS011;11828;51.508;18.118;2023-07-13T14:59:22;5.32;;;2.30;;
23310;SDS011;11828;51.508;18.118;2023-07-13T15:01:49;4.55;;;2.38;;
23310;SDS011;11828;51.508;18.118;2023-07-13T15:04:16;8.90;;;3.10;;
23310;SDS011;11828;51.508;18.118;2023-07-13T15:06:52;6.80;;;2.83;;
23310;SDS011;11828;51.508;18.118;2023-07-13T15:09:27;4.95;;;3.05;;